Time;durP1;ratioP1;P1;durP2;ratioP2;P2;SDS_P1;SDS_P2;PMS_P1;PMS_P2;Temp;Humidity;BMP_temperature;BMP_pressure;BME280_temperature;BME280_humidity;BME280_pressure;Samples;Min_cycle;Max_cycle;Signal;HPM_P1;HPM_P2
2021/01/12 00:02:24;;;;;;;48.05;25.88;;;-3.60;99.90;;;;;;5106733;28;20134;-75
2021/01/12 00:04:51;;;;;;;49.28;25.38;;;-3.60;99.90;;;;;;5106646;28;20123;-75
2021/01/12 00:07:23;;;;;;;49.92;25.35;;;-3.50;99.90;;;;;;5088465;28;20055;-75
2021/01/12 00:09:50;;;;;;;46.63;23.67;;;-3.40;99.90;;;;;;5101195;28;20040;-75
2021/01/12 00:12:18;;;;;;;45.53;24.15;;;-3.40;99.90;;;;;;5106117;28;20051;-76
2021/01/12 00:14:46;;;;;;;45.97;23.33;;;-3.30;99.90;;;;;;5106646;28;20035;-76
2021/01/12 00:17:13;;;;;;;42.88;23.02;;;-3.20;99.90;;;;;;5106455;28;20043;-75
2021/01/12 00:19:40;;;;;;;43.92;22.17;;;-3.10;99.90;;;;;;5103104;28;20051;-76
2021/01/12 00:22:16;;;;;;;43.83;23.00;;;-3.10;99.90;;;;;;5100767;28;20069;-75
2021/01/12 00:24:47;;;;;;;41.42;22.00;;;-3.10;99.90;;;;;;5087254;28;20043;-76
2021/01/12 00:27:16;;;;;;;40.97;22.02;;;-3.00;99.90;;;;;;5106581;28;20176;-75
2021/01/12 00:29:43;;;;;;;45.35;21.85;;;-3.00;99.90;;;;;;5103822;28;20044;-75
2021/01/12 00:32:21;;;;;;;47.25;22.30;;;-2.90;99.90;;;;;;5087786;28;20416;-75
2021/01/12 00:34:48;;;;;;;40.53;21.95;;;-2.90;99.90;;;;;;5106628;28;20039;-76
2021/01/12 00:37:25;;;;;;;39.75;20.73;;;-2.90;99.90;;;;;;5106873;28;20123;-76
2021/01/12 00:39:52;;;;;;;38.80;20.83;;;-2.90;99.90;;;;;;5099772;28;20490;-75
2021/01/12 00:42:19;;;;;;;43.28;22.55;;;-2.90;99.90;;;;;;5097868;28;20111;-75
2021/01/12 00:44:46;;;;;;;37.97;20.05;;;-2.90;99.90;;;;;;5105208;28;20184;-75
2021/01/12 00:47:13;;;;;;;39.70;21.00;;;-2.90;99.90;;;;;;5078013;28;20571;-75
2021/01/12 00:49:39;;;;;;;42.10;21.15;;;-3.00;99.90;;;;;;5104163;28;20040;-74
2021/01/12 00:52:12;;;;;;;40.50;22.50;;;-3.00;99.90;;;;;;5106646;28;20116;-75
2021/01/12 00:54:38;;;;;;;40.25;21.30;;;-3.10;99.90;;;;;;5105071;28;20237;-75
2021/01/12 00:57:05;;;;;;;42.42;21.02;;;-3.00;99.90;;;;;;5105691;28;20043;-75
2021/01/12 00:59:32;;;;;;;39.85;20.45;;;-3.00;99.90;;;;;;5103646;28;20043;-76
2021/01/12 01:02:00;;;;;;;40.88;20.95;;;-3.00;99.90;;;;;;5091403;28;20124;-75
2021/01/12 01:04:27;;;;;;;42.92;21.77;;;-2.90;99.90;;;;;;5105463;28;20090;-76
2021/01/12 01:06:54;;;;;;;39.53;21.10;;;-2.90;99.90;;;;;;5105910;28;20092;-75
2021/01/12 01:09:21;;;;;;;36.97;20.73;;;-2.90;99.90;;;;;;5104018;28;20606;-76
2021/01/12 01:11:48;;;;;;;34.83;18.50;;;-2.80;99.90;;;;;;5069748;28;20048;-75
2021/01/12 01:14:18;;;;;;;36.22;19.48;;;-2.80;99.90;;;;;;5103989;28;20046;-76
2021/01/12 01:16:45;;;;;;;38.75;18.80;;;-2.70;99.90;;;;;;5105575;28;20139;-75
2021/01/12 01:19:11;;;;;;;34.22;17.80;;;-2.60;99.90;;;;;;5105220;28;20035;-74
2021/01/12 01:21:38;;;;;;;28.15;16.20;;;-2.50;99.90;;;;;;5104933;28;20394;-75
2021/01/12 01:24:06;;;;;;;30.02;16.63;;;-2.40;99.90;;;;;;5104949;28;20078;-76
2021/01/12 01:26:33;;;;;;;34.15;18.10;;;-2.40;99.90;;;;;;5095100;28;20051;-75
2021/01/12 01:28:59;;;;;;;29.80;15.23;;;-2.40;99.90;;;;;;5072475;28;20110;-75
2021/01/12 01:31:39;;;;;;;31.08;17.10;;;-2.30;99.90;;;;;;5094402;28;20080;-76
2021/01/12 01:34:07;;;;;;;31.98;17.75;;;-2.30;99.90;;;;;;5104636;28;20787;-75
2021/01/12 01:36:34;;;;;;;27.55;16.10;;;-2.40;99.90;;;;;;5105757;28;20443;-75
2021/01/12 01:39:01;;;;;;;33.42;17.33;;;-2.40;99.90;;;;;;5105207;28;20039;-75
2021/01/12 01:41:27;;;;;;;30.67;17.20;;;-2.40;99.90;;;;;;5073052;28;20098;-76
2021/01/12 01:43:54;;;;;;;32.28;17.35;;;-2.40;99.90;;;;;;5105300;28;20122;-76
2021/01/12 01:46:20;;;;;;;32.10;17.75;;;-2.40;99.90;;;;;;5105197;28;20108;-76
2021/01/12 01:48:48;;;;;;;30.00;16.13;;;-2.40;99.90;;;;;;5104692;28;20077;-76
2021/01/12 01:51:15;;;;;;;33.00;16.60;;;-2.30;99.90;;;;;;5104359;28;20043;-75
2021/01/12 01:53:42;;;;;;;28.15;15.73;;;-2.30;99.90;;;;;;5104981;28;20092;-75
2021/01/12 01:56:08;;;;;;;31.85;16.48;;;-2.20;99.90;;;;;;5103653;28;20071;-75
2021/01/12 01:58:39;;;;;;;30.65;15.75;;;-2.20;99.90;;;;;;5087093;28;20562;-76
2021/01/12 02:01:06;;;;;;;24.88;14.70;;;-2.10;99.90;;;;;;5084496;28;20549;-75
2021/01/12 02:03:39;;;;;;;28.85;15.02;;;-2.20;99.90;;;;;;5104661;28;20458;-76
2021/01/12 02:06:18;;;;;;;29.42;15.88;;;-2.10;99.90;;;;;;5093784;28;20135;-76
2021/01/12 02:08:44;;;;;;;27.20;15.32;;;-2.10;99.90;;;;;;5085943;28;20681;-75
2021/01/12 02:11:14;;;;;;;26.70;14.45;;;-2.20;99.90;;;;;;5096292;28;20178;-74
2021/01/12 02:13:43;;;;;;;27.23;13.98;;;-2.20;99.90;;;;;;5105245;28;20043;-76
2021/01/12 02:16:10;;;;;;;27.83;14.60;;;-2.10;99.90;;;;;;5099916;28;20084;-75
2021/01/12 02:18:38;;;;;;;28.13;16.17;;;-2.10;99.90;;;;;;5095887;28;20111;-76
2021/01/12 02:21:06;;;;;;;28.73;15.43;;;-2.10;99.90;;;;;;5095259;28;20553;-75
2021/01/12 02:23:49;;;;;;;27.45;14.23;;;-2.10;99.90;;;;;;5104994;28;20047;-76
2021/01/12 02:26:15;;;;;;;23.77;12.85;;;-2.10;99.90;;;;;;5099681;28;20153;-75
2021/01/12 02:28:41;;;;;;;24.45;14.20;;;-2.10;99.90;;;;;;5094781;28;20677;-75
2021/01/12 02:31:08;;;;;;;24.50;14.10;;;-2.10;99.90;;;;;;5090606;28;20087;-75
2021/01/12 02:33:38;;;;;;;25.70;13.43;;;-2.10;99.90;;;;;;5103931;28;20042;-75
2021/01/12 02:36:08;;;;;;;23.73;12.85;;;-2.00;99.90;;;;;;5086359;28;20040;-75
2021/01/12 02:38:35;;;;;;;22.50;13.40;;;-2.10;99.90;;;;;;5104486;28;20039;-75
2021/01/12 02:41:16;;;;;;;24.88;14.20;;;-2.10;99.90;;;;;;5102612;28;20165;-75
2021/01/12 02:43:44;;;;;;;21.23;13.52;;;-2.10;99.90;;;;;;5091858;28;20109;-75
2021/01/12 02:46:11;;;;;;;24.25;13.75;;;-2.10;99.90;;;;;;5103653;28;20074;-75
2021/01/12 02:48:38;;;;;;;23.40;12.68;;;-2.10;99.90;;;;;;5101422;28;20130;-75
2021/01/12 02:51:07;;;;;;;24.90;12.45;;;-2.10;99.90;;;;;;5101568;28;20105;-76
2021/01/12 02:53:33;;;;;;;24.90;13.85;;;-2.00;99.90;;;;;;5104515;28;20126;-76
2021/01/12 02:56:00;;;;;;;20.27;12.00;;;-2.00;99.90;;;;;;5098901;28;20522;-76
2021/01/12 02:58:28;;;;;;;23.42;12.50;;;-2.00;99.90;;;;;;5104305;28;20079;-76
2021/01/12 03:00:54;;;;;;;24.05;12.10;;;-1.90;99.90;;;;;;5080456;28;20170;-75
2021/01/12 03:03:21;;;;;;;22.15;12.65;;;-1.90;99.90;;;;;;5104475;28;20040;-76
2021/01/12 03:05:47;;;;;;;22.70;11.25;;;-1.90;99.90;;;;;;5104086;28;20488;-75
2021/01/12 03:08:14;;;;;;;20.73;12.20;;;-1.90;99.90;;;;;;5085737;28;20551;-75
2021/01/12 03:10:41;;;;;;;24.98;12.50;;;-1.90;99.90;;;;;;5095879;28;20705;-75
2021/01/12 03:13:07;;;;;;;21.60;12.18;;;-1.80;99.90;;;;;;5103891;28;20238;-76
2021/01/12 03:15:38;;;;;;;22.90;12.05;;;-1.80;99.90;;;;;;5104642;28;20486;-76
2021/01/12 03:18:05;;;;;;;20.08;11.27;;;-1.70;99.90;;;;;;5097784;28;20088;-76
2021/01/12 03:20:33;;;;;;;23.90;12.15;;;-1.70;99.90;;;;;;5095336;28;20093;-76
2021/01/12 03:23:00;;;;;;;17.92;11.05;;;-1.60;99.90;;;;;;5099496;28;20099;-76
2021/01/12 03:25:27;;;;;;;21.35;11.70;;;-1.60;99.90;;;;;;5100780;28;20055;-77
2021/01/12 03:27:53;;;;;;;19.73;12.27;;;-1.60;99.90;;;;;;5093142;28;20048;-76
2021/01/12 03:30:22;;;;;;;21.15;11.55;;;-1.50;99.90;;;;;;5098123;28;20566;-76
2021/01/12 03:32:49;;;;;;;20.40;11.32;;;-1.50;99.90;;;;;;5105346;28;20404;-76
2021/01/12 03:35:16;;;;;;;19.75;11.65;;;-1.50;99.90;;;;;;5089145;28;20611;-76
2021/01/12 03:37:42;;;;;;;19.35;10.38;;;-1.60;99.90;;;;;;5107599;28;20047;-76
2021/01/12 03:40:09;;;;;;;21.55;12.20;;;-1.60;99.90;;;;;;5105787;28;20044;-77
2021/01/12 03:42:36;;;;;;;21.15;11.32;;;-1.60;99.90;;;;;;5092941;28;20131;-75
2021/01/12 03:45:06;;;;;;;20.70;12.35;;;-1.60;99.90;;;;;;5106888;28;20078;-76
2021/01/12 03:47:34;;;;;;;21.55;11.68;;;-1.60;99.90;;;;;;5089096;28;20119;-76
2021/01/12 03:50:01;;;;;;;20.17;12.48;;;-1.60;99.90;;;;;;5092840;28;20056;-78
2021/01/12 03:52:27;;;;;;;20.95;11.50;;;-1.60;99.90;;;;;;5094886;28;20525;-77
2021/01/12 03:54:54;;;;;;;19.23;11.85;;;-1.60;99.90;;;;;;5102031;28;20401;-76
2021/01/12 03:57:20;;;;;;;20.02;12.15;;;-1.60;99.90;;;;;;5088735;28;20070;-76
2021/01/12 03:59:47;;;;;;;20.30;11.20;;;-1.50;99.90;;;;;;5085898;28;20058;-75
2021/01/12 04:02:13;;;;;;;22.67;11.65;;;-1.50;99.90;;;;;;5106669;28;20040;-76
2021/01/12 04:04:40;;;;;;;20.35;11.75;;;-1.40;99.90;;;;;;5107026;28;20078;-76
2021/01/12 04:07:06;;;;;;;20.63;12.75;;;-1.50;99.90;;;;;;5106906;28;20079;-76
2021/01/12 04:09:32;;;;;;;17.42;11.00;;;-1.40;99.90;;;;;;5084928;28;20482;-76
2021/01/12 04:11:59;;;;;;;20.67;11.85;;;-1.40;99.90;;;;;;5087117;28;20044;-76
2021/01/12 04:14:26;;;;;;;19.60;11.63;;;-1.40;99.90;;;;;;5106281;28;20560;-77
2021/01/12 04:16:52;;;;;;;19.73;11.70;;;-1.30;99.90;;;;;;5104965;28;20121;-76
2021/01/12 04:19:19;;;;;;;19.48;11.52;;;-1.40;99.90;;;;;;5105889;28;20055;-76
2021/01/12 04:21:46;;;;;;;20.00;11.20;;;-1.40;99.90;;;;;;5101742;28;20036;-77
2021/01/12 04:24:12;;;;;;;22.75;12.40;;;-1.40;99.90;;;;;;5105516;28;20051;-76
2021/01/12 04:26:38;;;;;;;21.15;12.45;;;-1.40;99.90;;;;;;5101440;28;20075;-76
2021/01/12 04:29:05;;;;;;;21.83;11.88;;;-1.40;99.90;;;;;;5087584;28;20563;-76
2021/01/12 04:31:31;;;;;;;19.27;11.68;;;-1.40;99.90;;;;;;5095299;28;20473;-76
2021/01/12 04:33:58;;;;;;;21.77;12.23;;;-1.40;99.90;;;;;;5073773;28;20080;-76
2021/01/12 04:36:25;;;;;;;22.50;12.65;;;-1.40;99.90;;;;;;5105884;28;20130;-77
2021/01/12 04:38:51;;;;;;;22.90;12.95;;;-1.40;99.90;;;;;;5106151;28;20047;-79
2021/01/12 04:41:18;;;;;;;24.20;14.43;;;-1.40;99.90;;;;;;5093485;28;20646;-81
2021/01/12 04:43:44;;;;;;;28.38;14.57;;;-1.50;99.90;;;;;;5093793;28;20142;-78
2021/01/12 04:46:11;;;;;;;25.35;14.00;;;-1.50;99.90;;;;;;5085304;28;20083;-78
2021/01/12 04:48:37;;;;;;;19.85;12.10;;;-1.50;99.90;;;;;;5105486;28;20151;-78
2021/01/12 04:51:06;;;;;;;24.35;14.32;;;-1.50;99.90;;;;;;5072579;28;20144;-79
2021/01/12 04:53:48;;;;;;;24.77;14.60;;;-1.50;99.90;;;;;;5104494;28;20067;-79
2021/01/12 04:56:15;;;;;;;23.50;13.43;;;-1.50;99.90;;;;;;5101303;28;20075;-80
2021/01/12 04:58:42;;;;;;;22.13;13.15;;;-1.50;99.90;;;;;;5080507;28;20067;-79
2021/01/12 05:01:30;;;;;;;24.95;13.85;;;-1.50;99.90;;;;;;5104656;28;20411;-80
2021/01/12 05:03:56;;;;;;;23.95;13.35;;;-1.50;99.90;;;;;;5105661;28;20123;-77
2021/01/12 05:06:25;;;;;;;22.02;13.30;;;-1.50;99.90;;;;;;5075316;28;20155;-79
2021/01/12 05:08:55;;;;;;;25.45;13.98;;;-1.50;99.90;;;;;;5094093;28;20551;-78
2021/01/12 05:11:33;;;;;;;17.95;9.80;;;-1.50;99.90;;;;;;5102957;28;20124;-81
2021/01/12 05:14:07;;;;;;;26.30;14.23;;;-1.50;99.90;;;;;;5105415;28;20123;-78
2021/01/12 05:16:47;;;;;;;26.15;14.40;;;-1.50;99.90;;;;;;5104076;28;20035;-76
2021/01/12 05:19:28;;;;;;;25.92;15.88;;;-1.40;99.90;;;;;;5102117;28;20051;-76
2021/01/12 05:22:04;;;;;;;23.60;13.75;;;-1.40;99.90;;;;;;5105599;28;20097;-76
2021/01/12 05:24:41;;;;;;;25.05;14.25;;;-1.40;99.90;;;;;;5104166;28;20039;-76
2021/01/12 05:27:10;;;;;;;21.33;12.43;;;-1.30;99.90;;;;;;5091905;28;20230;-75
2021/01/12 05:29:38;;;;;;;20.70;11.90;;;-1.20;99.90;;;;;;5084967;28;20134;-74
2021/01/12 05:32:09;;;;;;;24.88;13.07;;;-1.20;99.90;;;;;;5086237;28;20108;-75
2021/01/12 05:34:38;;;;;;;24.52;14.00;;;-1.30;99.90;;;;;;5085899;28;20275;-75
2021/01/12 05:37:09;;;;;;;26.15;13.30;;;-1.30;99.90;;;;;;5104676;28;20665;-75
2021/01/12 05:39:41;;;;;;;20.33;12.73;;;-1.30;99.90;;;;;;5101414;28;20032;-75
2021/01/12 05:42:09;;;;;;;22.95;11.70;;;-1.30;99.90;;;;;;5076800;28;20071;-75
2021/01/12 05:44:38;;;;;;;20.88;11.82;;;-1.20;99.90;;;;;;5086414;28;20108;-75
2021/01/12 05:47:05;;;;;;;21.58;12.35;;;-1.20;99.90;;;;;;5104592;28;20125;-76
2021/01/12 05:49:32;;;;;;;24.20;13.68;;;-1.20;99.90;;;;;;5096074;28;20580;-76
2021/01/12 05:51:58;;;;;;;22.27;13.18;;;-1.20;99.90;;;;;;5105269;28;20043;-76
2021/01/12 05:54:32;;;;;;;19.48;11.10;;;-1.20;99.90;;;;;;5103472;28;20067;-77
2021/01/12 05:57:06;;;;;;;23.33;13.35;;;-1.20;99.90;;;;;;5078253;28;20055;-75
2021/01/12 05:59:37;;;;;;;21.42;12.40;;;-1.20;99.90;;;;;;5099457;28;20208;-76
2021/01/12 06:02:09;;;;;;;25.23;14.27;;;-1.20;99.90;;;;;;5104447;28;20071;-76
2021/01/12 06:04:37;;;;;;;20.70;11.45;;;-1.20;99.90;;;;;;5104756;28;20145;-76
2021/01/12 06:07:04;;;;;;;22.00;13.15;;;-1.20;99.90;;;;;;5104529;28;20117;-76
2021/01/12 06:09:32;;;;;;;22.65;12.88;;;-1.10;99.90;;;;;;5079455;28;20662;-76
2021/01/12 06:11:58;;;;;;;20.48;12.27;;;-1.10;99.90;;;;;;5081465;28;20075;-76
2021/01/12 06:14:29;;;;;;;23.10;12.85;;;-1.10;99.90;;;;;;5103806;28;20679;-77
2021/01/12 06:16:58;;;;;;;23.17;11.52;;;-1.00;99.90;;;;;;5104678;28;20040;-77
2021/01/12 06:19:27;;;;;;;21.30;11.60;;;-1.00;99.90;;;;;;5099721;28;20044;-77
2021/01/12 06:21:56;;;;;;;25.60;12.35;;;-1.00;99.90;;;;;;5081438;28;20048;-77
2021/01/12 06:24:37;;;;;;;25.17;12.40;;;-1.00;99.90;;;;;;5102731;28;20052;-77
2021/01/12 06:27:11;;;;;;;20.90;12.48;;;-0.90;99.90;;;;;;5091769;28;20446;-77
2021/01/12 06:29:42;;;;;;;19.77;11.65;;;-0.90;99.90;;;;;;5084810;28;20918;-76
2021/01/12 06:32:09;;;;;;;21.95;11.98;;;-0.80;99.90;;;;;;5074295;28;20421;-77
2021/01/12 06:34:40;;;;;;;18.92;10.88;;;-0.80;99.90;;;;;;5072312;28;20044;-77
2021/01/12 06:37:10;;;;;;;19.52;11.23;;;-0.80;99.90;;;;;;5104639;28;20090;-76
2021/01/12 06:39:39;;;;;;;18.20;10.57;;;-0.70;99.90;;;;;;5098326;28;20534;-77
2021/01/12 06:42:06;;;;;;;17.73;10.40;;;-0.70;99.90;;;;;;5094785;28;20092;-76
2021/01/12 06:44:34;;;;;;;17.33;10.05;;;-0.70;99.90;;;;;;5086042;28;20101;-76
2021/01/12 06:47:01;;;;;;;17.42;11.23;;;-0.60;99.90;;;;;;5105358;28;20439;-76
2021/01/12 06:49:34;;;;;;;18.87;11.43;;;-0.60;99.90;;;;;;5094942;28;20505;-76
2021/01/12 06:52:02;;;;;;;23.02;12.02;;;-0.60;99.90;;;;;;5096247;28;20044;-76
2021/01/12 06:54:38;;;;;;;18.42;11.00;;;-0.60;99.90;;;;;;5102192;28;20043;-77
2021/01/12 06:57:05;;;;;;;19.45;10.40;;;-0.60;99.90;;;;;;5092724;28;20048;-76
2021/01/12 06:59:35;;;;;;;19.02;11.73;;;-0.60;99.90;;;;;;5096868;28;20067;-77
2021/01/12 07:02:13;;;;;;;17.92;11.05;;;-0.60;99.90;;;;;;5108124;28;20039;-76
2021/01/12 07:04:40;;;;;;;15.90;9.95;;;-0.50;99.90;;;;;;5107864;28;20139;-76
2021/01/12 07:07:07;;;;;;;17.85;11.32;;;-0.50;99.90;;;;;;5105266;28;20689;-76
2021/01/12 07:09:33;;;;;;;17.35;9.95;;;-0.50;99.90;;;;;;5106999;28;20040;-76
2021/01/12 07:12:04;;;;;;;17.73;10.02;;;-0.50;99.90;;;;;;5075279;28;20135;-76
2021/01/12 07:14:31;;;;;;;17.75;11.25;;;-0.50;99.90;;;;;;5107436;28;20040;-76
2021/01/12 07:17:06;;;;;;;21.38;11.55;;;-0.50;99.90;;;;;;5103960;28;20104;-76
2021/01/12 07:19:34;;;;;;;15.53;9.03;;;-0.40;99.90;;;;;;5090176;28;20046;-76
2021/01/12 07:22:16;;;;;;;21.35;11.27;;;-0.40;99.90;;;;;;5108372;28;20066;-76
2021/01/12 07:24:45;;;;;;;18.55;10.13;;;-0.40;99.90;;;;;;5104232;28;20045;-77
2021/01/12 07:27:15;;;;;;;19.40;10.23;;;-0.40;99.90;;;;;;5091901;28;20048;-77
2021/01/12 07:29:52;;;;;;;17.23;10.20;;;-0.40;99.90;;;;;;5099820;28;20043;-76
2021/01/12 07:32:31;;;;;;;17.77;11.13;;;-0.30;99.90;;;;;;5101313;28;20521;-76
2021/01/12 07:35:09;;;;;;;19.42;11.73;;;-0.30;99.90;;;;;;5098946;28;20059;-76
2021/01/12 07:37:41;;;;;;;18.85;10.38;;;-0.30;99.90;;;;;;5082486;28;20040;-75
2021/01/12 07:40:13;;;;;;;18.70;11.20;;;-0.30;99.90;;;;;;5100293;28;20063;-76
2021/01/12 07:43:08;;;;;;;21.25;11.70;;;-0.30;99.90;;;;;;5106355;28;20036;-77
2021/01/12 07:45:35;;;;;;;19.92;11.90;;;-0.20;99.90;;;;;;5089154;28;20051;-77
2021/01/12 07:48:03;;;;;;;19.63;11.55;;;-0.20;99.90;;;;;;5098075;28;20124;-76
2021/01/12 07:50:31;;;;;;;17.92;11.70;;;-0.20;99.90;;;;;;5106744;28;20476;-77
2021/01/12 07:52:58;;;;;;;25.30;11.95;;;-0.20;99.90;;;;;;5089215;28;20100;-76
2021/01/12 07:55:26;;;;;;;19.25;11.55;;;-0.20;99.90;;;;;;5079076;28;20077;-76
2021/01/12 07:57:53;;;;;;;19.83;11.80;;;-0.20;99.90;;;;;;5104549;28;20079;-76
2021/01/12 08:00:21;;;;;;;18.88;11.63;;;-0.10;99.90;;;;;;5106397;28;20059;-76
2021/01/12 08:02:52;;;;;;;17.55;11.00;;;-0.10;99.90;;;;;;5106036;28;20070;-77
2021/01/12 08:05:21;;;;;;;20.45;10.77;;;-0.10;99.90;;;;;;5088638;28;20122;-76
2021/01/12 08:07:48;;;;;;;20.15;11.88;;;0.00;99.90;;;;;;5100771;28;20051;-77
2021/01/12 08:10:14;;;;;;;19.65;11.40;;;0.00;99.90;;;;;;5093523;28;20062;-76
2021/01/12 08:13:10;;;;;;;19.20;10.90;;;0.00;99.90;;;;;;5092185;28;20101;-76
2021/01/12 08:15:39;;;;;;;20.67;12.32;;;0.00;99.90;;;;;;5104977;28;20113;-76
2021/01/12 08:18:13;;;;;;;19.88;11.07;;;0.10;99.90;;;;;;5091645;28;20052;-76
2021/01/12 08:20:41;;;;;;;18.35;10.40;;;0.10;99.90;;;;;;5088211;28;20054;-76
2021/01/12 08:23:10;;;;;;;19.15;11.02;;;0.10;99.90;;;;;;5087959;28;20078;-76
2021/01/12 08:25:48;;;;;;;18.88;10.85;;;0.10;99.90;;;;;;5083294;28;20050;-76
2021/01/12 08:28:15;;;;;;;18.50;10.05;;;0.20;99.90;;;;;;5106000;28;20716;-75
2021/01/12 08:30:46;;;;;;;20.73;10.80;;;0.20;99.90;;;;;;5105781;28;20040;-77
2021/01/12 08:33:46;;;;;;;22.20;12.88;;;0.20;99.90;;;;;;5105971;28;20043;-76
2021/01/12 08:36:23;;;;;;;18.48;10.43;;;0.20;99.90;;;;;;5064147;28;20131;-76
2021/01/12 08:39:10;;;;;;;18.35;10.73;;;0.30;99.90;;;;;;5106204;28;20122;-76
2021/01/12 08:41:54;;;;;;;20.08;11.00;;;0.30;99.90;;;;;;5093240;28;20040;-77
2021/01/12 08:44:26;;;;;;;18.17;11.02;;;0.30;99.90;;;;;;5105157;28;20040;-76
2021/01/12 08:47:06;;;;;;;23.08;11.77;;;0.30;99.90;;;;;;5076915;28;20399;-76
2021/01/12 08:49:41;;;;;;;17.38;10.35;;;0.30;99.90;;;;;;5088347;28;20050;-76
2021/01/12 08:52:29;;;;;;;18.25;11.30;;;0.40;99.90;;;;;;5106497;28;20083;-76
2021/01/12 08:54:57;;;;;;;19.67;11.27;;;0.40;99.90;;;;;;5103139;28;20565;-76
2021/01/12 08:57:30;;;;;;;16.80;9.95;;;0.40;99.90;;;;;;5094981;28;20044;-76
2021/01/12 09:00:13;;;;;;;17.73;10.32;;;0.50;99.90;;;;;;5103257;28;20055;-76
2021/01/12 09:02:40;;;;;;;16.88;9.52;;;0.50;99.90;;;;;;5105650;28;20059;-76
2021/01/12 09:05:13;;;;;;;17.05;10.15;;;0.60;99.90;;;;;;5102239;28;20151;-76
2021/01/12 09:07:40;;;;;;;14.00;8.85;;;0.60;99.90;;;;;;5099056;28;20481;-76
2021/01/12 09:10:08;;;;;;;13.30;8.25;;;0.60;99.90;;;;;;5082849;28;20072;-76
2021/01/12 09:12:46;;;;;;;12.65;7.72;;;0.70;99.90;;;;;;5095086;28;20134;-76
2021/01/12 09:15:17;;;;;;;14.13;7.97;;;0.70;99.90;;;;;;5099950;28;20040;-76
2021/01/12 09:18:23;;;;;;;12.65;7.70;;;0.80;99.90;;;;;;5088369;28;20161;-76
2021/01/12 09:21:10;;;;;;;12.50;7.30;;;0.90;99.90;;;;;;5097168;28;20469;-76
2021/01/12 09:23:45;;;;;;;10.30;7.28;;;0.90;99.90;;;;;;5084260;28;20055;-78
2021/01/12 09:26:28;;;;;;;9.68;6.65;;;1.00;99.90;;;;;;5092066;28;20051;-76
2021/01/12 09:29:00;;;;;;;9.40;6.03;;;1.00;99.90;;;;;;5081594;28;20044;-76
2021/01/12 09:31:51;;;;;;;10.05;6.28;;;1.00;99.90;;;;;;5104520;28;20573;-75
2021/01/12 09:34:26;;;;;;;10.82;6.93;;;1.10;99.90;;;;;;5101129;28;20044;-76
2021/01/12 09:37:21;;;;;;;8.85;5.15;;;1.10;99.90;;;;;;5067774;28;20055;-77
2021/01/12 09:39:56;;;;;;;10.23;6.55;;;1.10;99.90;;;;;;5083562;28;20048;-76
2021/01/12 09:42:36;;;;;;;11.15;7.38;;;1.10;99.90;;;;;;5082966;28;20597;-76
2021/01/12 09:45:21;;;;;;;11.40;7.03;;;1.20;99.90;;;;;;5102514;28;20115;-77
2021/01/12 09:48:01;;;;;;;10.73;6.57;;;1.10;99.90;;;;;;5070936;28;20467;-76
2021/01/12 09:50:32;;;;;;;9.57;6.82;;;1.10;99.90;;;;;;5080450;28;20195;-76
2021/01/12 09:53:25;;;;;;;12.18;7.35;;;1.10;99.90;;;;;;5101698;28;20047;-76
2021/01/12 09:56:06;;;;;;;12.13;7.43;;;1.10;99.90;;;;;;5076575;28;20043;-76
2021/01/12 09:58:37;;;;;;;8.13;6.07;;;1.10;99.90;;;;;;5094248;28;20108;-76
2021/01/12 10:01:08;;;;;;;9.63;6.32;;;1.10;99.90;;;;;;5095275;28;20050;-76
2021/01/12 10:03:36;;;;;;;9.38;6.53;;;1.20;99.90;;;;;;5085786;28;20055;-76
2021/01/12 10:06:04;;;;;;;10.38;6.50;;;1.20;99.90;;;;;;5104349;28;20479;-76
2021/01/12 10:08:42;;;;;;;9.15;6.05;;;1.20;99.90;;;;;;5095855;28;20070;-76
2021/01/12 10:11:20;;;;;;;13.15;6.70;;;1.20;99.90;;;;;;5101032;28;20044;-76
2021/01/12 10:14:05;;;;;;;10.60;6.63;;;1.20;99.90;;;;;;5102273;28;20052;-77
2021/01/12 10:16:40;;;;;;;9.50;5.75;;;1.20;99.90;;;;;;5103886;28;20040;-77
2021/01/12 10:19:22;;;;;;;9.13;5.28;;;1.10;99.90;;;;;;5079076;28;20054;-77
2021/01/12 10:21:56;;;;;;;7.95;5.47;;;1.10;99.90;;;;;;5092767;28;20122;-76
2021/01/12 10:24:42;;;;;;;5.95;4.30;;;1.10;99.90;;;;;;5079406;28;20446;-76
2021/01/12 10:27:09;;;;;;;8.20;5.22;;;1.10;99.90;;;;;;5083720;28;20146;-75
2021/01/12 10:29:47;;;;;;;7.80;4.45;;;1.00;99.90;;;;;;5105886;28;20054;-76
2021/01/12 10:32:15;;;;;;;8.60;5.07;;;1.00;99.90;;;;;;5094421;28;20621;-75
2021/01/12 10:34:45;;;;;;;8.30;5.22;;;1.00;99.90;;;;;;5107991;28;20134;-76
2021/01/12 10:37:15;;;;;;;9.23;5.03;;;1.00;99.90;;;;;;5108393;28;20673;-74
2021/01/12 10:39:41;;;;;;;7.15;4.60;;;1.00;99.90;;;;;;5088067;28;20050;-76
2021/01/12 10:42:09;;;;;;;5.22;4.40;;;1.00;99.90;;;;;;5102546;28;20047;-75
2021/01/12 10:44:35;;;;;;;8.32;4.40;;;1.00;99.90;;;;;;5107777;28;20035;-76
2021/01/12 10:47:02;;;;;;;8.45;4.40;;;1.00;99.90;;;;;;5098601;28;20040;-74
2021/01/12 10:49:37;;;;;;;6.25;4.25;;;1.00;99.90;;;;;;5101197;28;20104;-75
2021/01/12 10:52:06;;;;;;;7.65;3.50;;;1.00;99.90;;;;;;5109110;28;20119;-75
2021/01/12 10:54:44;;;;;;;5.53;3.47;;;1.00;99.90;;;;;;5087653;28;20051;-76
2021/01/12 10:57:10;;;;;;;4.40;3.45;;;1.10;99.90;;;;;;5096261;28;20075;-75
2021/01/12 10:59:38;;;;;;;5.65;3.47;;;1.00;99.90;;;;;;5107653;28;20048;-77
2021/01/12 11:02:06;;;;;;;4.80;3.13;;;1.00;99.90;;;;;;5107445;28;20061;-76
2021/01/12 11:04:41;;;;;;;4.30;3.00;;;1.00;99.90;;;;;;5087799;28;20044;-77
2021/01/12 11:07:08;;;;;;;4.60;3.10;;;1.10;99.90;;;;;;5094544;28;20047;-77
2021/01/12 11:09:39;;;;;;;2.55;2.25;;;1.00;99.90;;;;;;5106710;28;20054;-77
2021/01/12 11:12:08;;;;;;;3.85;2.60;;;1.00;99.90;;;;;;5093753;28;20051;-77
2021/01/12 11:14:35;;;;;;;3.40;2.60;;;1.00;99.90;;;;;;5089738;28;20665;-78
2021/01/12 11:17:01;;;;;;;4.00;2.90;;;1.00;99.90;;;;;;5087935;28;20127;-77
2021/01/12 11:19:35;;;;;;;3.70;2.85;;;1.00;99.90;;;;;;5107796;28;20109;-78
2021/01/12 11:22:01;;;;;;;3.17;2.78;;;1.00;99.90;;;;;;5086432;28;20340;-78
2021/01/12 11:24:33;;;;;;;4.10;2.90;;;1.00;99.90;;;;;;5095909;28;20531;-78
2021/01/12 11:27:05;;;;;;;6.55;2.90;;;1.00;99.90;;;;;;5095124;28;20086;-77
2021/01/12 11:29:32;;;;;;;3.17;2.78;;;0.90;99.90;;;;;;5081473;28;20143;-78
2021/01/12 11:32:00;;;;;;;4.30;2.97;;;0.90;99.90;;;;;;5098868;28;20055;-76
2021/01/12 11:34:33;;;;;;;2.65;2.45;;;0.90;99.90;;;;;;5088227;28;20087;-77
2021/01/12 11:37:00;;;;;;;4.07;3.10;;;0.90;99.90;;;;;;5107934;28;20044;-76
2021/01/12 11:39:32;;;;;;;3.95;2.63;;;1.00;99.90;;;;;;5103327;28;20524;-79
2021/01/12 11:41:59;;;;;;;14.90;3.13;;;1.00;99.90;;;;;;5096679;28;20055;-77
2021/01/12 11:44:25;;;;;;;5.18;3.05;;;1.00;99.90;;;;;;5106386;28;20146;-78
2021/01/12 11:46:52;;;;;;;4.88;2.90;;;1.00;99.90;;;;;;5089831;28;20072;-77
2021/01/12 11:49:19;;;;;;;4.13;2.90;;;1.00;99.90;;;;;;5106810;28;20530;-77
2021/01/12 11:51:48;;;;;;;4.47;3.20;;;1.00;99.90;;;;;;5107225;28;20044;-76
2021/01/12 11:54:16;;;;;;;4.07;3.20;;;1.00;99.90;;;;;;5106216;28;20060;-77
2021/01/12 11:56:55;;;;;;;6.40;3.15;;;1.00;99.90;;;;;;5091675;28;20467;-75
2021/01/12 11:59:26;;;;;;;5.75;2.92;;;1.00;99.90;;;;;;5103121;28;20048;-76
2021/01/12 12:01:55;;;;;;;3.97;3.13;;;1.00;99.90;;;;;;5100882;28;20467;-78
2021/01/12 12:04:23;;;;;;;6.20;2.80;;;1.00;99.90;;;;;;5098265;28;20052;-76
2021/01/12 12:07:02;;;;;;;5.65;3.00;;;1.00;99.90;;;;;;5106962;28;20678;-76
2021/01/12 12:09:33;;;;;;;4.55;2.70;;;1.00;99.90;;;;;;5104949;28;20635;-75
2021/01/12 12:12:01;;;;;;;4.20;2.63;;;1.00;99.90;;;;;;5106259;28;20050;-77
2021/01/12 12:14:34;;;;;;;5.45;2.25;;;1.00;99.90;;;;;;5106656;28;20798;-76
2021/01/12 12:17:00;;;;;;;6.53;2.53;;;1.00;99.90;;;;;;5106238;28;20048;-74
2021/01/12 12:19:34;;;;;;;2.85;2.40;;;1.00;99.90;;;;;;5099667;28;20047;-76
2021/01/12 12:22:05;;;;;;;6.40;2.40;;;1.10;99.90;;;;;;5101598;28;20077;-74
2021/01/12 12:24:38;;;;;;;2.53;1.80;;;1.00;99.90;;;;;;5086785;28;20120;-75
2021/01/12 12:27:05;;;;;;;1.95;1.80;;;1.00;99.90;;;;;;5073808;28;20063;-75
2021/01/12 12:29:38;;;;;;;1.88;1.48;;;1.10;99.90;;;;;;5079661;28;20040;-74
2021/01/12 12:32:05;;;;;;;2.17;1.58;;;1.10;99.90;;;;;;5087656;28;20083;-75
2021/01/12 12:34:36;;;;;;;1.38;1.30;;;1.20;99.90;;;;;;5089849;28;20085;-73
2021/01/12 12:37:14;;;;;;;1.70;1.60;;;1.20;99.90;;;;;;5080957;28;20059;-73
2021/01/12 12:39:58;;;;;;;1.60;1.50;;;1.20;99.90;;;;;;5082774;28;20118;-74
2021/01/12 12:42:47;;;;;;;1.48;1.38;;;1.20;99.90;;;;;;5077883;28;20054;-73
2021/01/12 12:45:17;;;;;;;1.27;1.20;;;1.20;99.90;;;;;;5094189;28;20051;-74
2021/01/12 12:47:57;;;;;;;1.63;1.52;;;1.10;99.90;;;;;;5092475;28;20093;-75
2021/01/12 12:50:39;;;;;;;1.40;1.27;;;1.20;99.90;;;;;;5082739;28;20233;-75
2021/01/12 12:53:25;;;;;;;1.60;1.50;;;1.10;99.90;;;;;;5081592;28;20158;-75
2021/01/12 12:55:57;;;;;;;1.70;1.40;;;1.20;99.90;;;;;;5088673;28;20046;-75